Terminal Aerodrome Forecast
Issued by NWS Sterling, VA

Current Version | Previous Version | Graphics & Text | Print | Product List | Glossary On
Versions: 1 2 3 4 5 6 7 8 9 10 11 12 13 14 15 16 17 18 19 20 21
000
FTUS41 KLWX 270529
TAFIAD
TAF
KIAD 270529Z 2706/2812 00000KT P6SM BKN030 OVC045
     FM270800 34005KT P6SM OVC030
     FM271500 34012G20KT P6SM BKN035
     FM272200 34009KT P6SM SCT040
     FM280300 35004KT P6SM SCT150=

USA.gov is the U.S. government's official web portal to all federal, state and local government web resources and services.